Dyess Air Force Base
KDYS : rendu visible

Aérodrome :











RETROUVEZ-NOUS SUR...

 
LOGIN :

S'inscrire | Disclaimer

   EN    FR    IT 

 









Légende :    VFR   VFR Marginal   IFR   IFR Intensif   IFR Très Intensif
Visi : 
Plafond : 
>= 8 km
>= 3000ft
5 à 8 km
1000 à 3000 ft
1500m à 5 km
500 à 1000 ft
800 à 1500m
200 à 500 ft
< 800m
< 200 ft
Symboles :   Orages  Brouillard  Fortes neiges  Fortes précipitations  Vent > 20 kt






- Altitude de l'aérodrome : 1789 ft


KDYS - Dyess Air Force Base

DERNIER METAR :
  • 181656Z AUTO 36018G24KT 10SM CLR 07/M01 A3041 RMK AO2 PK WND 35028/10 SLP291 T00731014 PNO FZRANO $

METARs EXPIRÉS :
  • 181556Z AUTO 36019G24KT 10SM CLR 08/M01 A3037 RMK AO2 SLP280 T00781009 PNO FZRANO $

TAF TAF KDYS
Valide du 18 à 15h jusqu'au 19 à 21h UTC


181500Z 1815/1921 01012G18KT 9999 SKC QNH3031INS
TEMPO 1817/1820 02015G25KT
BECMG 1823/1824 02009KT 9999 SKC QNH3038INS
BECMG 1911/1912 15009KT 9999 SKC QNH3047INS TX11/1822Z TN00/1912Z



MET'MAP, la Météo Aéronautique d'un coup d'oeil ! - Copyright ORBIFLY Décembre 2007 - Disclaimer

ORBIFLY MET'MAP TEAM :

Programmation & Développement : Alexandra Zaïnal
Sur une idée originale de : Baudouin d'Aumeries
Assistance à la programmation : Marc-Olivier Méhu
Soutien technique & logistique : Manuel Goepfert

Contact : metmap@orbifly.com




SOURCES & CREDITS :

   NOAA       Earth
Advisory